createdAt,value
2023-04-29T00:01:06.002Z,100872.75
2023-04-29T00:03:33.213Z,100852.63
2023-04-29T00:06:01.115Z,100846.19
2023-04-29T00:08:28.128Z,100842.69
2023-04-29T00:10:54.737Z,100851.47
2023-04-29T00:13:21.463Z,100844.69
2023-04-29T00:15:48.196Z,100837.75
2023-04-29T00:18:14.836Z,100852.91
2023-04-29T00:20:43.226Z,100854.47
2023-04-29T00:23:09.818Z,100844.81
2023-04-29T00:25:38.346Z,100823.03
2023-04-29T00:28:06.020Z,100832.66
2023-04-29T00:30:34.381Z,100828.44
2023-04-29T00:33:01.165Z,100825.22
2023-04-29T00:35:27.839Z,100839.78
2023-04-29T00:37:54.461Z,100835.56
2023-04-29T00:40:21.170Z,100832.16
2023-04-29T00:42:47.805Z,100828.78
2023-04-29T00:45:14.464Z,100842.78
2023-04-29T00:47:41.055Z,100837.72
2023-04-29T00:50:08.878Z,100842.78
2023-04-29T00:52:37.647Z,100831.78
2023-04-29T00:55:06.274Z,100841.13
2023-04-29T00:57:34.633Z,100846.34
2023-04-29T01:00:01.441Z,100850.22
2023-04-29T01:02:28.807Z,100841.13
2023-04-29T01:04:55.713Z,100840.47
2023-04-29T01:07:47.222Z,100834.38
2023-04-29T01:10:19.957Z,100831.69
2023-04-29T01:12:59.793Z,100844.34
2023-04-29T01:15:41.667Z,100839.09
2023-04-29T01:18:40.577Z,100835.06
2023-04-29T01:21:07.157Z,100832.00
2023-04-29T01:23:33.853Z,100817.47
2023-04-29T01:26:00.572Z,100828.78
2023-04-29T01:28:35.367Z,100818.50
2023-04-29T01:31:15.481Z,100815.78
2023-04-29T01:33:51.174Z,100828.78
2023-04-29T01:36:35.550Z,100822.72
2023-04-29T01:39:27.054Z,100828.13
2023-04-29T01:42:15.256Z,100807.84
2023-04-29T01:44:43.765Z,100824.56
2023-04-29T01:47:14.020Z,100824.91
2023-04-29T01:49:41.018Z,100793.81
2023-04-29T01:52:07.638Z,100793.66
2023-04-29T01:54:37.008Z,100809.88
2023-04-29T01:57:03.612Z,100800.75
2023-04-29T01:59:31.694Z,100808.03
2023-04-29T02:01:59.016Z,100789.78
2023-04-29T02:04:25.996Z,100801.09
2023-04-29T02:06:52.928Z,100813.63
2023-04-29T02:09:19.676Z,100809.72
2023-04-29T02:11:46.245Z,100803.63
2023-04-29T02:14:12.873Z,100805.66
2023-04-29T02:16:39.518Z,100810.75
2023-04-29T02:19:06.228Z,100817.69
2023-04-29T02:21:32.863Z,100813.63
2023-04-29T02:23:59.523Z,100805.34
2023-04-29T02:26:26.165Z,100789.97
2023-04-29T02:28:52.734Z,100788.94
2023-04-29T02:31:19.339Z,100793.34
2023-04-29T02:33:46.001Z,100785.56
2023-04-29T02:36:12.595Z,100806.69
2023-04-29T02:38:39.174Z,100800.09
2023-04-29T02:41:05.739Z,100802.28
2023-04-29T02:43:32.323Z,100794.16
2023-04-29T02:45:59.008Z,100798.22
2023-04-29T02:48:25.621Z,100781.31
2023-04-29T02:50:52.841Z,100776.94
2023-04-29T02:53:20.939Z,100772.88
2023-04-29T02:55:48.361Z,100773.19
2023-04-29T02:58:14.970Z,100790.78
2023-04-29T03:00:42.182Z,100790.78
2023-04-29T03:03:09.419Z,100806.50
2023-04-29T03:05:36.542Z,100817.50
2023-04-29T03:08:04.238Z,100816.47
2023-04-29T03:10:30.971Z,100827.28
2023-04-29T03:12:57.546Z,100825.94
2023-04-29T03:15:24.165Z,100819.34
2023-04-29T03:17:50.845Z,100827.97
2023-04-29T03:20:17.538Z,100822.25
2023-04-29T03:22:44.096Z,100807.69
2023-04-29T03:25:10.821Z,100805.34
2023-04-29T03:27:37.404Z,100787.75
2023-04-29T03:30:04.508Z,100791.47
2023-04-29T03:32:31.131Z,100795.88
2023-04-29T03:34:57.809Z,100776.44
2023-04-29T03:37:24.394Z,100786.41
2023-04-29T03:39:51.086Z,100808.34
2023-04-29T03:42:17.942Z,100811.06
2023-04-29T03:44:44.651Z,100823.91
2023-04-29T03:47:11.253Z,100806.31
2023-04-29T03:49:37.844Z,100794.03
2023-04-29T03:52:04.919Z,100795.69
2023-04-29T03:54:31.534Z,100794.84
2023-04-29T03:56:58.154Z,100808.22
2023-04-29T03:59:24.768Z,100796.38
2023-04-29T04:01:52.460Z,100791.63
2023-04-29T04:04:19.210Z,100800.59
2023-04-29T04:06:51.300Z,100794.69
2023-04-29T04:09:18.866Z,100785.22
2023-04-29T04:11:45.702Z,100784.19
2023-04-29T04:14:12.392Z,100794.84
2023-04-29T04:16:39.021Z,100802.44
2023-04-29T04:19:05.693Z,100804.16
2023-04-29T04:21:32.305Z,100805.31
2023-04-29T04:23:59.016Z,100808.34
2023-04-29T04:26:25.696Z,100812.75
2023-04-29T04:28:52.321Z,100808.03
2023-04-29T04:31:19.046Z,100813.44
2023-04-29T04:33:45.653Z,100788.38
2023-04-29T04:36:12.270Z,100802.69
2023-04-29T04:38:38.818Z,100811.13
2023-04-29T04:41:08.916Z,100809.94
2023-04-29T04:43:35.581Z,100816.84
2023-04-29T04:46:11.042Z,100806.22
2023-04-29T04:48:37.700Z,100813.84
2023-04-29T04:51:12.011Z,100807.75
2023-04-29T04:53:39.409Z,100817.03
2023-04-29T04:56:06.876Z,100806.22
2023-04-29T04:58:33.613Z,100808.28
2023-04-29T05:01:00.996Z,100805.41
2023-04-29T05:03:28.262Z,100811.00
2023-04-29T05:05:58.910Z,100819.63
2023-04-29T05:08:26.091Z,100815.75
2023-04-29T05:10:54.193Z,100818.13
2023-04-29T05:13:21.256Z,100813.72
2023-04-29T05:15:48.187Z,100806.44
2023-04-29T05:18:14.794Z,100825.88
2023-04-29T05:20:41.411Z,100825.88
2023-04-29T05:23:08.845Z,100819.81
2023-04-29T05:25:35.612Z,100821.03
2023-04-29T05:28:04.548Z,100834.38
2023-04-29T05:30:30.996Z,100831.69
2023-04-29T05:32:57.650Z,100837.44
2023-04-29T05:35:24.305Z,100842.69
2023-04-29T05:37:51.243Z,100838.09
2023-04-29T05:40:17.967Z,100840.81
2023-04-29T05:42:44.550Z,100822.56
2023-04-29T05:45:12.515Z,100842.53
2023-04-29T05:47:39.199Z,100848.31
2023-04-29T05:50:06.519Z,100836.41
2023-04-29T05:52:33.123Z,100839.44
2023-04-29T05:54:59.764Z,100842.31
2023-04-29T05:57:26.419Z,100840.09
2023-04-29T05:59:55.219Z,100845.16
2023-04-29T06:02:21.848Z,100848.50
2023-04-29T06:04:49.031Z,100838.56
2023-04-29T06:07:18.909Z,100857.97
2023-04-29T06:09:47.039Z,100857.13
2023-04-29T06:12:13.664Z,100858.09
2023-04-29T06:14:40.431Z,100858.84
2023-04-29T06:17:07.081Z,100865.13
2023-04-29T06:19:34.128Z,100865.97
2023-04-29T06:22:00.801Z,100864.09
2023-04-29T06:24:27.444Z,100864.25
2023-04-29T06:26:54.036Z,100883.53
2023-04-29T06:29:20.663Z,100884.31
2023-04-29T06:31:47.335Z,100874.81
2023-04-29T06:34:13.972Z,100880.88
2023-04-29T06:36:41.628Z,100881.69
2023-04-29T06:39:08.310Z,100858.50
2023-04-29T06:41:34.983Z,100875.44
2023-04-29T06:44:01.669Z,100871.97
2023-04-29T06:46:29.269Z,100873.69
2023-04-29T06:48:56.029Z,100886.94
2023-04-29T06:51:22.765Z,100888.97
2023-04-29T06:53:49.396Z,100876.50
2023-04-29T06:56:17.072Z,100882.88
2023-04-29T06:58:43.978Z,100884.09
2023-04-29T07:01:11.026Z,100880.25
2023-04-29T07:03:37.966Z,100873.56
2023-04-29T07:06:05.201Z,100858.19
2023-04-29T07:08:32.188Z,100868.19
2023-04-29T07:10:58.880Z,100848.06
2023-04-29T07:13:26.154Z,100860.28
2023-04-29T07:15:53.007Z,100858.41
2023-04-29T07:18:19.663Z,100875.41
2023-04-29T07:20:47.916Z,100866.75
2023-04-29T07:23:14.968Z,100843.22
2023-04-29T07:25:41.664Z,100850.84
2023-04-29T07:28:11.416Z,100854.38
2023-04-29T07:30:38.617Z,100846.44
2023-04-29T07:33:05.443Z,100849.59
2023-04-29T07:35:32.016Z,100856.91
2023-04-29T07:37:58.630Z,100858.88
2023-04-29T07:40:25.306Z,100859.06
2023-04-29T07:42:52.544Z,100866.25
2023-04-29T07:45:19.250Z,100849.19
2023-04-29T07:47:45.981Z,100865.06
2023-04-29T07:50:12.909Z,100871.81
2023-04-29T07:52:39.525Z,100876.09
2023-04-29T07:55:06.432Z,100879.78
2023-04-29T07:57:33.065Z,100878.81
2023-04-29T07:59:59.759Z,100884.94
2023-04-29T08:02:26.552Z,100891.44
2023-04-29T08:04:54.788Z,100889.50
2023-04-29T08:07:21.710Z,100896.47
2023-04-29T08:09:48.375Z,100901.16
2023-04-29T08:12:15.372Z,100899.00
2023-04-29T08:14:41.947Z,100910.75
2023-04-29T08:17:08.702Z,100906.06
2023-04-29T08:19:35.846Z,100910.81
2023-04-29T08:22:04.257Z,100909.31
2023-04-29T08:24:31.194Z,100911.72
2023-04-29T08:26:58.966Z,100912.59
2023-04-29T08:29:25.636Z,100915.13
2023-04-29T08:31:52.304Z,100913.72
2023-04-29T08:34:19.080Z,100918.75
2023-04-29T08:36:45.685Z,100919.53
2023-04-29T08:39:12.430Z,100929.72
2023-04-29T08:41:39.348Z,100929.53
2023-04-29T08:44:06.224Z,100931.28
2023-04-29T08:46:33.211Z,100927.81
2023-04-29T08:49:03.980Z,100923.75
2023-04-29T08:51:32.322Z,100931.25
2023-04-29T08:53:59.062Z,100914.44
2023-04-29T08:56:28.128Z,100916.34
2023-04-29T08:58:56.454Z,100925.50
2023-04-29T09:01:24.200Z,100928.72
2023-04-29T09:04:05.009Z,100924.56
2023-04-29T09:06:33.412Z,100923.69
2023-04-29T09:09:02.143Z,100921.84
2023-04-29T09:11:30.078Z,100894.50
2023-04-29T09:14:03.452Z,100920.81
2023-04-29T09:16:30.575Z,100923.94
2023-04-29T09:18:57.598Z,100930.22
2023-04-29T09:21:27.280Z,100914.50
2023-04-29T09:23:59.211Z,100916.06
2023-04-29T09:26:26.809Z,100931.13
2023-04-29T09:29:09.256Z,100924.97
2023-04-29T09:31:37.982Z,100920.81
2023-04-29T09:34:05.004Z,100911.56
2023-04-29T09:36:37.879Z,100915.56
2023-04-29T09:39:14.006Z,100910.44
2023-04-29T09:41:52.851Z,100917.00
2023-04-29T09:44:20.221Z,100915.28
2023-04-29T09:47:02.826Z,100912.63
2023-04-29T09:49:38.838Z,100911.72
2023-04-29T09:52:10.956Z,100899.66
2023-04-29T09:54:39.906Z,100911.13
2023-04-29T09:57:08.737Z,100906.84
2023-04-29T09:59:41.033Z,100900.81
2023-04-29T10:02:15.571Z,100904.69
2023-04-29T10:04:45.612Z,100882.22
2023-04-29T10:07:18.736Z,100888.34
2023-04-29T10:09:47.683Z,100888.03
2023-04-29T10:12:19.935Z,100887.53
2023-04-29T10:15:00.019Z,100833.44
2023-04-29T10:17:49.578Z,100887.41
2023-04-29T10:20:23.097Z,100893.31
2023-04-29T10:22:58.169Z,100891.97
2023-04-29T10:25:27.986Z,100884.34
2023-04-29T10:27:56.013Z,100861.25
2023-04-29T10:30:23.315Z,100877.72
2023-04-29T10:32:52.396Z,100873.81
2023-04-29T10:35:25.556Z,100869.47
2023-04-29T10:37:54.326Z,100861.50
2023-04-29T10:40:24.821Z,100878.53
2023-04-29T10:42:53.372Z,100851.47
2023-04-29T10:45:27.624Z,100852.00
2023-04-29T10:48:05.740Z,100842.28
2023-04-29T10:50:33.185Z,100834.78
2023-04-29T10:53:04.222Z,100832.38
2023-04-29T10:55:31.350Z,100823.72
2023-04-29T10:57:58.192Z,100823.16
2023-04-29T11:00:32.072Z,100817.53
2023-04-29T11:03:00.708Z,100827.91
2023-04-29T11:05:37.802Z,100831.53
2023-04-29T11:08:10.545Z,100837.75
2023-04-29T11:10:38.741Z,100837.13
2023-04-29T11:13:26.820Z,100843.97
2023-04-29T11:15:54.429Z,100834.69
2023-04-29T11:18:21.434Z,100827.16
2023-04-29T11:21:20.858Z,100829.53
2023-04-29T11:23:47.916Z,100821.06
2023-04-29T11:26:14.926Z,100834.66
2023-04-29T11:28:43.411Z,100825.94
2023-04-29T11:31:09.901Z,100826.16
2023-04-29T11:33:36.517Z,100820.06
2023-04-29T11:36:03.663Z,100829.28
2023-04-29T11:38:31.087Z,100830.53
2023-04-29T11:40:58.144Z,100819.63
2023-04-29T11:43:25.625Z,100825.47
2023-04-29T11:45:53.610Z,100820.56
2023-04-29T11:48:25.278Z,100810.63
2023-04-29T11:50:54.952Z,100805.09
2023-04-29T11:53:25.213Z,100818.22
2023-04-29T11:55:56.129Z,100808.72
2023-04-29T11:58:23.940Z,100811.13
2023-04-29T12:00:52.071Z,100820.72
2023-04-29T12:03:20.536Z,100809.63
2023-04-29T12:05:56.984Z,100800.31
2023-04-29T12:08:29.088Z,100811.13
2023-04-29T12:10:58.381Z,100802.94
2023-04-29T12:13:28.920Z,100816.97
2023-04-29T12:15:56.702Z,100817.16
2023-04-29T12:18:23.958Z,100810.63
2023-04-29T12:20:55.933Z,100822.47
2023-04-29T12:23:24.524Z,100818.50
2023-04-29T12:25:56.907Z,100810.28
2023-04-29T12:28:25.327Z,100818.75
2023-04-29T12:30:54.348Z,100804.09
2023-04-29T12:33:28.404Z,100811.00
2023-04-29T12:35:57.626Z,100808.69
2023-04-29T12:38:29.891Z,100808.78
2023-04-29T12:40:58.783Z,100818.00
2023-04-29T12:43:33.586Z,100809.03
2023-04-29T12:46:04.582Z,100807.81
2023-04-29T12:48:33.598Z,100807.56
2023-04-29T12:51:01.963Z,100794.28
2023-04-29T12:53:32.091Z,100786.66
2023-04-29T12:55:58.937Z,100788.78
2023-04-29T12:58:29.369Z,100781.72
2023-04-29T13:00:56.193Z,100778.22
2023-04-29T13:03:23.045Z,100772.91
2023-04-29T13:05:52.768Z,100776.03
2023-04-29T13:08:20.001Z,100768.31
2023-04-29T13:10:46.628Z,100762.13
2023-04-29T13:13:13.286Z,100766.88
2023-04-29T13:15:43.866Z,100750.16
2023-04-29T13:18:11.399Z,100745.09
2023-04-29T13:20:42.048Z,100745.19
2023-04-29T13:23:46.337Z,100754.75
2023-04-29T13:26:13.681Z,100738.94
2023-04-29T13:28:41.368Z,100735.13
2023-04-29T13:31:07.955Z,100739.75
2023-04-29T13:33:38.294Z,100750.78
2023-04-29T13:36:06.962Z,100748.94
2023-04-29T13:38:33.623Z,100741.41
2023-04-29T13:41:11.632Z,100732.28
2023-04-29T13:43:43.652Z,100738.88
2023-04-29T13:46:11.436Z,100731.31
2023-04-29T13:54:37.483Z,100729.59
2023-04-29T14:04:01.255Z,100718.00
2023-04-29T14:06:28.512Z,100721.84
2023-04-29T14:08:55.191Z,100706.00
2023-04-29T14:11:21.820Z,100722.44
2023-04-29T14:13:48.445Z,100693.47
2023-04-29T14:16:15.196Z,100719.78
2023-04-29T14:18:41.792Z,100724.56
2023-04-29T14:21:08.611Z,100712.69
2023-04-29T14:23:35.188Z,100717.25
2023-04-29T14:26:17.156Z,100732.56
2023-04-29T14:28:48.475Z,100726.25
2023-04-29T14:31:17.095Z,100726.81
2023-04-29T14:33:44.566Z,100731.19
2023-04-29T14:36:11.193Z,100714.97
2023-04-29T14:38:37.803Z,100724.97
2023-04-29T14:41:04.384Z,100717.69
2023-04-29T14:43:31.226Z,100728.88
2023-04-29T14:45:58.666Z,100719.38
2023-04-29T14:48:25.729Z,100720.97
2023-04-29T14:50:52.418Z,100723.56
2023-04-29T14:53:19.028Z,100722.00
2023-04-29T14:55:45.990Z,100719.88
2023-04-29T14:58:12.581Z,100725.75
2023-04-29T15:00:39.192Z,100727.72
2023-04-29T15:03:05.846Z,100715.25
2023-04-29T15:05:32.607Z,100714.31
2023-04-29T15:08:00.548Z,100720.72
2023-04-29T15:10:28.262Z,100718.16
2023-04-29T15:12:55.130Z,100695.56
2023-04-29T15:15:22.860Z,100709.09
2023-04-29T15:17:49.961Z,100720.41
2023-04-29T15:20:16.586Z,100713.06
2023-04-29T15:22:43.240Z,100720.09
2023-04-29T15:25:10.128Z,100703.44
2023-04-29T15:27:37.953Z,100722.97
2023-04-29T15:30:06.668Z,100716.50
2023-04-29T15:32:33.271Z,100706.63
2023-04-29T15:35:01.113Z,100710.56
2023-04-29T15:37:29.019Z,100709.88
2023-04-29T15:39:56.391Z,100695.25
2023-04-29T15:42:23.178Z,100703.72
2023-04-29T15:44:49.769Z,100693.78
2023-04-29T15:47:16.416Z,100691.13
2023-04-29T15:49:43.085Z,100697.03
2023-04-29T15:52:10.547Z,100683.56
2023-04-29T15:54:37.397Z,100676.44
2023-04-29T15:57:04.281Z,100684.50
2023-04-29T15:59:31.877Z,100691.81
2023-04-29T16:01:58.553Z,100678.00
2023-04-29T16:04:25.441Z,100683.91
2023-04-29T16:06:55.411Z,100655.47
2023-04-29T16:09:22.048Z,100683.84
2023-04-29T16:11:48.947Z,100685.03
2023-04-29T16:14:15.602Z,100689.47
2023-04-29T16:16:43.138Z,100674.19
2023-04-29T16:19:10.369Z,100683.22
2023-04-29T16:21:37.052Z,100687.72
2023-04-29T16:24:03.651Z,100689.25
2023-04-29T16:26:30.357Z,100695.31
2023-04-29T16:28:57.971Z,100680.31
2023-04-29T16:31:24.901Z,100683.44
2023-04-29T16:33:51.682Z,100685.78
2023-04-29T16:36:18.571Z,100692.53
2023-04-29T16:38:45.389Z,100681.25
2023-04-29T16:41:12.036Z,100684.38
2023-04-29T16:43:38.641Z,100661.97
2023-04-29T16:46:05.561Z,100693.28
2023-04-29T16:48:32.211Z,100693.28
2023-04-29T16:50:59.118Z,100677.31
2023-04-29T16:53:25.719Z,100673.06
2023-04-29T16:55:52.497Z,100660.50
2023-04-29T16:58:19.565Z,100657.78
2023-04-29T17:00:47.775Z,100680.25
2023-04-29T17:03:14.772Z,100615.00
2023-04-29T17:05:41.938Z,100676.06
2023-04-29T17:08:08.739Z,100685.50
2023-04-29T17:10:35.842Z,100675.44
2023-04-29T17:13:02.542Z,100681.31
2023-04-29T17:15:29.578Z,100666.63
2023-04-29T17:17:56.220Z,100679.25
2023-04-29T17:20:23.467Z,100680.91
2023-04-29T17:22:50.394Z,100685.34
2023-04-29T17:25:18.111Z,100661.63
2023-04-29T17:27:46.133Z,100687.03
2023-04-29T17:30:13.321Z,100684.50
2023-04-29T17:32:40.143Z,100678.63
2023-04-29T17:35:08.387Z,100685.97
2023-04-29T17:37:38.553Z,100694.19
2023-04-29T17:40:14.610Z,100669.38
2023-04-29T17:42:41.654Z,100676.94
2023-04-29T17:45:08.886Z,100675.28
2023-04-29T17:47:35.669Z,100685.59
2023-04-29T17:50:02.908Z,100669.81
2023-04-29T17:52:29.671Z,100688.31
2023-04-29T17:54:56.282Z,100690.00
2023-04-29T17:57:23.130Z,100688.72
2023-04-29T17:59:49.869Z,100678.66
2023-04-29T18:02:16.560Z,100692.31
2023-04-29T18:04:43.383Z,100691.25
2023-04-29T18:07:10.231Z,100683.00
2023-04-29T18:09:37.465Z,100693.94
2023-04-29T18:12:04.875Z,100688.00
2023-04-29T18:14:31.990Z,100686.09
2023-04-29T18:17:01.366Z,100695.31
2023-04-29T18:19:28.241Z,100690.88
2023-04-29T18:21:59.283Z,100665.44
2023-04-29T18:24:26.278Z,100680.75
2023-04-29T18:26:52.900Z,100692.09
2023-04-29T18:29:19.493Z,100692.28
2023-04-29T18:31:46.311Z,100697.09
2023-04-29T18:34:12.964Z,100700.03
2023-04-29T18:36:39.760Z,100701.47
2023-04-29T18:39:07.333Z,100696.63
2023-04-29T18:41:33.960Z,100698.72
2023-04-29T18:44:00.616Z,100705.19
2023-04-29T18:46:29.654Z,100707.28
2023-04-29T18:48:56.488Z,100726.56
2023-04-29T18:51:23.336Z,100711.63
2023-04-29T18:53:49.949Z,100720.22
2023-04-29T18:56:16.746Z,100719.72
2023-04-29T18:58:43.317Z,100715.84
2023-04-29T19:01:09.912Z,100731.53
2023-04-29T19:03:36.748Z,100722.88
2023-04-29T19:06:03.820Z,100740.25
2023-04-29T19:08:30.673Z,100735.34
2023-04-29T19:10:58.669Z,100736.53
2023-04-29T19:13:27.751Z,100738.81
2023-04-29T19:15:55.182Z,100746.50
2023-04-29T19:18:23.249Z,100745.63
2023-04-29T19:20:50.318Z,100753.97
2023-04-29T19:23:16.958Z,100747.19
2023-04-29T19:25:44.050Z,100753.59
2023-04-29T19:28:10.664Z,100744.72
2023-04-29T19:30:37.250Z,100737.66
2023-04-29T19:33:04.363Z,100751.78
2023-04-29T19:35:31.143Z,100755.81
2023-04-29T19:37:57.758Z,100772.50
2023-04-29T19:40:24.344Z,100760.53
2023-04-29T19:42:50.924Z,100767.09
2023-04-29T19:45:17.510Z,100782.94
2023-04-29T19:47:44.281Z,100779.31
2023-04-29T19:50:11.038Z,100788.13
2023-04-29T19:52:37.734Z,100791.22
2023-04-29T19:55:04.988Z,100803.69
2023-04-29T19:57:32.041Z,100810.34
2023-04-29T19:59:58.623Z,100809.44
2023-04-29T20:02:25.343Z,100800.88
2023-04-29T20:04:51.996Z,100807.56
2023-04-29T20:07:18.720Z,100801.53
2023-04-29T20:09:45.873Z,100792.66
2023-04-29T20:12:12.484Z,100798.09
2023-04-29T20:14:39.155Z,100796.94
2023-04-29T20:17:06.484Z,100806.31
2023-04-29T20:19:34.936Z,100800.38
2023-04-29T20:22:01.626Z,100805.00
2023-04-29T20:24:28.353Z,100810.59
2023-04-29T20:26:54.988Z,100806.38
2023-04-29T20:29:21.609Z,100817.06
2023-04-29T20:31:48.286Z,100815.06
2023-04-29T20:34:14.931Z,100811.22
2023-04-29T20:36:41.570Z,100827.31
2023-04-29T20:39:09.391Z,100829.38
2023-04-29T20:41:36.017Z,100839.56
2023-04-29T20:44:03.122Z,100837.22
2023-04-29T20:46:29.815Z,100834.69
2023-04-29T20:48:56.579Z,100834.22
2023-04-29T20:51:23.583Z,100817.34
2023-04-29T20:53:50.177Z,100833.75
2023-04-29T20:56:16.737Z,100837.47
2023-04-29T20:58:43.404Z,100823.84
2023-04-29T21:01:10.046Z,100832.53
2023-04-29T21:03:37.094Z,100829.22
2023-04-29T21:06:03.839Z,100831.16
2023-04-29T21:08:30.471Z,100839.16
2023-04-29T21:10:57.163Z,100838.03
2023-04-29T21:13:23.804Z,100850.38
2023-04-29T21:15:51.040Z,100848.22
2023-04-29T21:18:17.819Z,100847.72
2023-04-29T21:20:44.493Z,100852.66
2023-04-29T21:23:11.117Z,100858.06
2023-04-29T21:25:37.718Z,100851.97
2023-04-29T21:28:04.605Z,100847.66
2023-04-29T21:30:31.260Z,100854.41
2023-04-29T21:32:58.050Z,100848.97
2023-04-29T21:35:26.047Z,100845.28
2023-04-29T21:37:52.683Z,100858.88
2023-04-29T21:40:19.463Z,100867.50
2023-04-29T21:42:46.567Z,100864.31
2023-04-29T21:45:16.113Z,100870.25
2023-04-29T21:47:43.434Z,100873.69
2023-04-29T21:50:11.243Z,100870.69
2023-04-29T21:52:37.991Z,100873.59
2023-04-29T21:55:05.097Z,100867.69
2023-04-29T21:57:43.486Z,100878.88
2023-04-29T22:00:28.183Z,100866.16
2023-04-29T22:02:54.846Z,100872.44
2023-04-29T22:05:21.476Z,100887.84
2023-04-29T22:07:48.025Z,100882.25
2023-04-29T22:10:14.649Z,100876.34
2023-04-29T22:12:41.204Z,100884.16
2023-04-29T22:15:17.138Z,100888.91
2023-04-29T22:17:54.284Z,100886.03
2023-04-29T22:20:21.091Z,100886.34
2023-04-29T22:22:47.677Z,100890.94
2023-04-29T22:25:14.236Z,100891.28
2023-04-29T22:27:40.810Z,100897.84
2023-04-29T22:30:08.283Z,100891.91
2023-04-29T22:32:36.180Z,100886.50
2023-04-29T22:35:03.005Z,100899.03
2023-04-29T22:37:29.607Z,100898.69
2023-04-29T22:39:57.004Z,100904.44
2023-04-29T22:42:23.786Z,100910.00
2023-04-29T22:44:50.791Z,100913.22
2023-04-29T22:47:17.448Z,100908.81
2023-04-29T22:49:44.059Z,100917.28
2023-04-29T22:52:10.689Z,100909.19
2023-04-29T22:54:37.324Z,100904.94
2023-04-29T22:57:04.155Z,100914.59
2023-04-29T22:59:30.944Z,100910.19
2023-04-29T23:01:57.800Z,100906.47
2023-04-29T23:04:24.781Z,100885.66
2023-04-29T23:06:51.865Z,100896.34
2023-04-29T23:09:18.544Z,100889.59
2023-04-29T23:11:45.520Z,100887.34
2023-04-29T23:14:12.081Z,100895.31
2023-04-29T23:16:38.659Z,100891.63
2023-04-29T23:19:05.341Z,100886.22
2023-04-29T23:21:32.542Z,100890.59
2023-04-29T23:23:59.153Z,100895.50
2023-04-29T23:26:25.742Z,100894.34
2023-04-29T23:28:52.352Z,100897.53
2023-04-29T23:31:19.044Z,100906.16
2023-04-29T23:33:45.679Z,100902.09
2023-04-29T23:36:12.438Z,100901.78
2023-04-29T23:38:39.017Z,100905.47
2023-04-29T23:41:05.583Z,100900.06
2023-04-29T23:43:32.209Z,100895.69
2023-04-29T23:45:58.930Z,100903.63
2023-04-29T23:48:25.581Z,100899.88
2023-04-29T23:50:52.158Z,100890.59
2023-04-29T23:53:18.744Z,100881.94
2023-04-29T23:55:45.436Z,100895.69
2023-04-29T23:58:12.093Z,100891.09
